»·PEaware :: N930BL KVGT-KSGU

N930BL :: KVGT-KSGU

FLIGHT INFORMATION

Flight Status: Arrived
Operator: Privately registered:
United States
More flights under this callsign
Pilot: Brett L. (10300)
Aircraft: SOCATA TBM-900
(TBM9)
More flights by this aircraft type
Origin: KVGT North Las Vegas
United States
Destination: KSGU St George Mun
United States
More flights between these airports :: More routes between these airports
Route: RTTRN3 LAS V394 MMM
File this flight plan on PilotEdge
Remarks:
Altitude:
(Current/Filed)
13,000ft
Speed:
(Current/Filed)
300kts
Departed: 09-Sep-17 12:26 AM
Arrived: 09-Sep-17 01:09 AM
Distance/Time
Traveled:
95nm/0:43
Distance/Time
To Go:
Arrived

Flight Plot

Page will automatically refresh every two minutes.


Map Options




Map Legend


Flown Route
Filed Route
Departure Airport
Arrival Airport
Navaid (VOR, NDB)
Fix

Horizontal Profiles

Position Reports

Time Latitude Longitude Heading Altitude Ground
Speed
09-Sep-17 00:29 36.205615 -115.191122 317 2209ft 0kts
09-Sep-17 00:30 36.206727 -115.192495 310 2209ft 57kts
09-Sep-17 00:31 36.209548 -115.229196 248 4799ft 149kts
09-Sep-17 00:32 36.232378 -115.273880 270 8208ft 170kts
09-Sep-17 00:33 36.200343 -115.277425 127 11102ft 207kts
09-Sep-17 00:34 36.150280 -115.215899 145 11001ft 277kts
09-Sep-17 00:35 36.091441 -115.153704 111 10990ft 292kts
09-Sep-17 00:36 36.127478 -115.068782 37 10996ft 309kts
09-Sep-17 00:37 36.196172 -115.004420 42 10992ft 309kts
09-Sep-17 00:38 36.258800 -114.932008 46 11024ft 307kts
09-Sep-17 00:39 36.318301 -114.857236 47 11134ft 306kts
09-Sep-17 00:40 36.378017 -114.780997 47 11131ft 308kts
09-Sep-17 00:41 36.437733 -114.704594 47 11132ft 308kts
09-Sep-17 00:42 36.497511 -114.627940 47 11136ft 311kts
09-Sep-17 00:43 36.553718 -114.555909 48 11131ft 238kts
09-Sep-17 00:44 36.593365 -114.504940 48 11164ft 186kts
09-Sep-17 00:45 36.630014 -114.457562 48 11136ft 187kts
09-Sep-17 00:46 36.659764 -114.419136 48 11004ft 189kts
09-Sep-17 00:47 36.703365 -114.362694 48 13379ft 221kts
09-Sep-17 00:48 36.745850 -114.307792 49 17192ft 231kts
09-Sep-17 00:49 36.783908 -114.232550 68 17233ft 218kts
09-Sep-17 00:50 36.808822 -114.164565 70 13955ft 213kts
09-Sep-17 00:51 36.833112 -114.097335 64 10674ft 211kts
09-Sep-17 00:52 36.861201 -114.038847 58 10030ft 211kts
09-Sep-17 00:53 36.905305 -113.983569 41 9999ft 228kts
09-Sep-17 00:54 36.953399 -113.931453 41 10001ft 229kts
09-Sep-17 00:55 37.001397 -113.879334 41 10016ft 229kts
09-Sep-17 00:56 37.049547 -113.827042 41 10013ft 231kts
09-Sep-17 00:57 37.099005 -113.773263 41 10000ft 233kts
09-Sep-17 00:58 37.148042 -113.719913 41 10004ft 233kts
09-Sep-17 00:59 37.180891 -113.645287 71 8836ft 253kts
09-Sep-17 01:00 37.203653 -113.561471 71 7645ft 253kts
09-Sep-17 01:01 37.226220 -113.477977 71 6483ft 246kts
09-Sep-17 01:02 37.233536 -113.450874 71 6417ft 235kts
09-Sep-17 01:03 37.233536 -113.450874 71 6417ft 235kts
09-Sep-17 01:04 37.233536 -113.450874 71 6417ft 235kts
09-Sep-17 01:05 37.252858 -113.376541 81 6309ft 178kts
09-Sep-17 01:06 37.235171 -113.328719 170 6350ft 164kts
09-Sep-17 01:07 37.206455 -113.367482 207 6365ft 168kts
09-Sep-17 01:08 37.192473 -113.421906 227 6349ft 189kts
09-Sep-17 01:09 37.152765 -113.447756 203 5647ft 158kts
09-Sep-17 01:10 37.114250 -113.468752 208 4387ft 149kts
09-Sep-17 01:11 37.081584 -113.486317 213 3480ft 95kts
09-Sep-17 01:12 37.056023 -113.499858 205 3072ft 100kts
09-Sep-17 01:13 37.038481 -113.509329 203 2844ft 33kts
09-Sep-17 01:14 37.035516 -113.510859 20 2844ft 23kts
09-Sep-17 01:15 37.039995 -113.506680 114 2844ft 17kts
09-Sep-17 01:16 37.038799 -113.503164 112 2844ft 0kts
09-Sep-17 01:17 37.038798 -113.503161 112 2844ft 0kts
09-Sep-17 01:18 37.038797 -113.503159 112 2844ft 0kts
09-Sep-17 01:19 37.038796 -113.503156 112 2844ft 0kts
09-Sep-17 01:20 37.038795 -113.503153 112 2844ft 0kts
09-Sep-17 01:21 37.038794 -113.503151 112 2844ft 0kts
09-Sep-17 01:22 37.038793 -113.503148 112 2844ft 0kts

Navigation Log

Ident Type
Flight plan parsing failed, navigation log unavailable